Time;durP1;ratioP1;P1;durP2;ratioP2;P2;SDS_P1;SDS_P2;PMS_P1;PMS_P2;Temp;Humidity;BMP_temperature;BMP_pressure;BME280_temperature;BME280_humidity;BME280_pressure;Samples;Min_cycle;Max_cycle;Signal;HPM_P1;HPM_P2
2023/01/07 00:01:21;;;;;;;2.23;1.20;;;12.80;90.60;;;13.30;53.87;99211.28;4961728;28;113927;-74
2023/01/07 00:03:50;;;;;;;1.30;1.20;;;12.80;90.60;;;13.30;53.97;99212.13;4967076;28;125019;-75
2023/01/07 00:06:30;;;;;;;1.73;1.47;;;12.80;90.60;;;13.31;53.78;99210.16;4967591;28;123742;-75
2023/01/07 00:08:57;;;;;;;1.27;1.17;;;12.80;90.60;;;13.30;53.63;99202.97;4952452;28;114347;-74
2023/01/07 00:11:28;;;;;;;2.10;1.80;;;12.80;90.60;;;13.31;53.60;99212.94;4997416;28;113109;-74
2023/01/07 00:13:56;;;;;;;3.43;1.40;;;12.80;90.60;;;13.30;53.82;99212.13;4966849;28;125054;-74
2023/01/07 00:16:28;;;;;;;1.87;1.40;;;12.80;90.60;;;13.30;53.78;99202.97;4970105;28;122856;-75
2023/01/07 00:18:57;;;;;;;1.40;1.30;;;12.80;90.50;;;13.29;53.75;99206.88;4971303;28;113029;-74
2023/01/07 00:21:26;;;;;;;1.43;1.20;;;12.80;90.50;;;13.27;53.60;99204.41;4969977;28;114720;-74
2023/01/07 00:23:55;;;;;;;1.50;1.40;;;12.80;90.50;;;13.28;53.82;99208.03;4968508;28;123943;-75
2023/01/07 00:26:25;;;;;;;2.10;1.17;;;12.80;90.50;;;13.28;53.76;99208.03;4993551;28;123982;-76
2023/01/07 00:28:54;;;;;;;3.53;1.40;;;12.80;90.50;;;13.28;53.66;99203.31;4981303;28;114174;-74
2023/01/07 00:31:39;;;;;;;1.63;1.30;;;12.90;90.60;;;13.28;53.25;99189.44;4972279;28;113923;-76
2023/01/07 00:34:09;;;;;;;2.23;1.50;;;12.80;90.50;;;13.29;54.01;99195.78;4972111;28;124121;-75
2023/01/07 00:36:45;;;;;;;2.03;1.67;;;12.80;90.60;;;13.28;53.88;99174.75;4967129;28;123929;-77
2023/01/07 00:39:19;;;;;;;2.03;1.40;;;12.80;90.60;;;13.28;53.72;99180.28;4961706;28;115129;-74
2023/01/07 00:44:33;;;;;;;2.37;1.50;;;12.90;91.00;;;13.26;53.90;99173.09;4993700;28;124639;-74
2023/01/07 00:47:00;;;;;;;2.40;1.60;;;12.80;90.70;;;13.26;54.00;99169.50;4980266;28;122834;-74
2023/01/07 00:49:27;;;;;;;1.90;1.50;;;12.80;90.70;;;13.25;54.13;99170.63;4968082;28;114272;-74
2023/01/07 00:51:53;;;;;;;1.93;1.60;;;12.80;90.70;;;13.24;54.14;99167.03;4955515;28;114040;-74
2023/01/07 00:54:19;;;;;;;6.40;1.87;;;12.80;90.70;;;13.24;54.17;99164.25;4960306;28;124097;-74
2023/01/07 00:56:46;;;;;;;1.63;1.27;;;14.60;91.50;;;13.25;54.27;99176.16;4967510;28;123648;-73
2023/01/07 00:59:12;;;;;;;1.50;1.23;;;12.70;90.70;;;13.24;54.13;99168.97;4969841;28;114259;-74
2023/01/07 01:01:39;;;;;;;1.93;1.50;;;12.70;90.70;;;13.22;54.17;99160.97;4963406;28;113171;-74
2023/01/07 01:04:07;;;;;;;2.40;1.60;;;12.70;90.80;;;13.20;54.26;99166.03;4963172;28;124176;-75
2023/01/07 01:06:33;;;;;;;3.10;1.90;;;12.70;90.70;;;13.17;54.41;99163.88;4986422;28;123909;-75
2023/01/07 01:08:59;;;;;;;2.10;1.67;;;12.70;90.70;;;13.15;54.15;99159.81;4985000;28;114311;-74
2023/01/07 01:11:26;;;;;;;1.53;1.40;;;12.70;90.70;;;13.13;54.54;99157.34;4959556;28;113946;-74
2023/01/07 01:13:52;;;;;;;1.87;1.50;;;12.70;90.80;;;13.11;54.56;99162.41;4954002;28;123314;-74
2023/01/07 01:16:19;;;;;;;1.73;1.57;;;12.70;90.80;;;13.10;54.38;99157.16;4963440;28;124406;-75
2023/01/07 01:18:46;;;;;;;1.67;1.50;;;12.60;90.80;;;13.09;54.69;99156.34;4966205;28;114534;-74
2023/01/07 01:21:15;;;;;;;1.80;1.50;;;12.60;90.80;;;13.09;54.52;99161.09;4968661;28;113908;-74
2023/01/07 01:23:42;;;;;;;1.80;1.50;;;12.80;91.00;;;13.08;54.57;99157.47;4967653;28;124004;-74
2023/01/07 01:26:14;;;;;;;2.10;1.57;;;12.60;90.90;;;13.07;54.69;99158.63;4970279;28;123868;-73
2023/01/07 01:28:42;;;;;;;1.90;1.67;;;12.60;91.00;;;13.05;54.85;99150.59;4968909;28;115141;-74
2023/01/07 01:31:08;;;;;;;3.83;1.63;;;12.60;91.00;;;13.06;54.95;99154.22;4975908;28;114731;-74
2023/01/07 01:33:35;;;;;;;2.47;1.80;;;12.60;91.00;;;13.07;54.88;99146.72;4968683;28;123845;-73
2023/01/07 01:36:04;;;;;;;3.20;1.87;;;12.60;91.00;;;13.08;55.02;99143.59;4966957;28;123945;-73
2023/01/07 01:38:31;;;;;;;2.10;1.60;;;12.60;91.10;;;13.08;55.02;99149.16;4968656;28;114451;-73
2023/01/07 01:40:57;;;;;;;1.90;1.70;;;12.70;91.10;;;13.09;54.93;99158.31;4968524;28;114035;-73
2023/01/07 01:43:43;;;;;;;1.60;1.50;;;12.60;91.10;;;13.06;54.94;99151.44;4967668;28;123981;-73
2023/01/07 01:46:34;;;;;;;1.87;1.47;;;12.60;91.10;;;13.05;54.75;99144.25;5001699;28;124250;-74
2023/01/07 01:49:24;;;;;;;2.40;1.30;;;12.50;91.10;;;13.01;54.91;99148.81;4958514;28;114256;-75
2023/01/07 01:51:59;;;;;;;1.50;1.40;;;12.60;91.10;;;12.98;55.08;99138.38;4970577;28;114061;-73
2023/01/07 01:54:27;;;;;;;1.80;1.50;;;12.50;91.10;;;12.97;55.22;99139.47;4967574;28;124509;-73
2023/01/07 01:56:55;;;;;;;2.17;1.60;;;12.50;91.10;;;12.97;55.12;99142.25;4969348;28;123766;-75
2023/01/07 01:59:25;;;;;;;1.90;1.40;;;12.50;91.10;;;12.98;55.04;99139.19;4971230;28;114343;-74
2023/01/07 02:01:52;;;;;;;1.33;1.23;;;12.50;91.10;;;12.98;55.08;99138.38;4967448;28;113863;-76
2023/01/07 02:04:22;;;;;;;1.83;1.57;;;12.70;91.10;;;12.97;55.01;99137.53;4999747;28;124035;-75
2023/01/07 02:06:59;;;;;;;1.70;1.43;;;12.50;91.10;;;12.98;55.03;99132.81;4966734;28;123500;-75
2023/01/07 02:09:25;;;;;;;1.60;1.30;;;12.60;91.10;;;12.98;55.06;99128.09;4967852;28;114939;-74
2023/01/07 02:12:37;;;;;;;1.67;1.20;;;12.60;91.10;;;12.99;55.18;99129.72;4968808;28;113853;-74
2023/01/07 02:15:15;;;;;;;2.27;1.50;;;12.50;91.00;;;12.98;55.06;99127.28;4961052;28;124768;-75
2023/01/07 02:17:50;;;;;;;1.63;1.47;;;12.50;91.00;;;12.99;54.93;99126.13;4966880;28;123675;-74
2023/01/07 02:20:59;;;;;;;1.90;1.47;;;12.50;91.00;;;12.98;54.91;99121.72;4961660;28;116105;-73
2023/01/07 02:24:21;;;;;;;1.97;1.30;;;12.50;91.00;;;12.93;54.71;99119.91;4970636;28;114681;-73
2023/01/07 02:27:08;;;;;;;1.80;1.40;;;12.50;90.90;;;12.92;54.86;99117.44;4970083;28;123798;-73
2023/01/07 02:30:17;;;;;;;1.30;1.10;;;11.10;90.30;;;12.92;54.74;99118.28;4967083;28;123799;-73
2023/01/07 02:33:09;;;;;;;1.70;1.40;;;12.50;90.90;;;12.93;54.90;99110.78;4968285;28;114561;-73
2023/01/07 02:36:13;;;;;;;2.37;1.30;;;12.40;90.90;;;12.93;54.62;99110.78;4968176;28;113988;-73
2023/01/07 02:39:06;;;;;;;1.47;1.10;;;12.50;90.80;;;12.92;54.33;99101.63;4967763;28;124063;-73
2023/01/07 02:41:59;;;;;;;2.17;1.40;;;12.40;90.70;;;12.93;54.41;99092.16;4967028;28;123257;-73
2023/01/07 02:44:41;;;;;;;3.77;1.30;;;12.50;90.80;;;12.94;54.30;99091.03;4967890;28;114289;-73
2023/01/07 02:47:37;;;;;;;1.57;1.30;;;12.50;90.70;;;12.95;54.02;99089.06;4968815;28;114228;-73
2023/01/07 02:50:07;;;;;;;1.37;1.10;;;12.50;90.50;;;12.94;53.54;99091.03;4962037;28;124014;-73
2023/01/07 02:52:35;;;;;;;1.83;1.33;;;12.40;90.40;;;12.94;53.68;99082.69;4963213;28;123926;-73
2023/01/07 02:55:49;;;;;;;1.20;1.00;;;12.50;90.40;;;12.96;53.74;99082.38;4967691;28;114009;-73
2023/01/07 02:58:59;;;;;;;1.43;1.10;;;12.50;90.30;;;12.96;53.73;99074.06;4963227;28;116337;-73
2023/01/07 03:02:05;;;;;;;1.50;1.17;;;12.50;90.30;;;12.95;53.33;99078.81;4966072;28;125143;-73
2023/01/07 03:05:01;;;;;;;1.47;1.00;;;12.50;90.20;;;12.94;53.29;99070.78;4927633;28;124066;-73
2023/01/07 03:07:52;;;;;;;3.13;1.43;;;12.50;90.10;;;12.94;53.31;99066.06;4982842;28;113139;-73
2023/01/07 03:10:36;;;;;;;3.10;1.37;;;12.50;90.10;;;12.94;53.22;99066.06;4969542;28;113734;-73
2023/01/07 03:13:33;;;;;;;2.47;1.10;;;12.40;90.00;;;12.94;53.23;99066.06;4967367;28;123908;-73
2023/01/07 03:16:08;;;;;;;1.23;1.03;;;12.50;90.00;;;12.95;53.11;99062.16;4967247;28;123992;-73
2023/01/07 03:18:49;;;;;;;1.20;1.10;;;12.50;90.00;;;12.95;52.97;99059.41;4960493;28;115164;-73
2023/01/07 03:21:18;;;;;;;1.30;1.03;;;12.50;90.00;;;12.97;52.83;99053.50;4951457;28;114054;-73
2023/01/07 03:23:52;;;;;;;1.03;0.93;;;12.50;90.00;;;12.97;52.90;99054.31;4966952;28;124014;-73
2023/01/07 03:26:23;;;;;;;1.87;1.10;;;12.50;89.90;;;12.98;52.72;99057.94;4974665;28;123813;-73
2023/01/07 03:28:52;;;;;;;2.20;1.20;;;12.60;89.80;;;12.95;52.68;99050.22;4967998;28;114670;-73
2023/01/07 03:31:21;;;;;;;1.73;1.10;;;12.50;89.60;;;12.92;52.77;99040.63;4952355;28;113209;-73
2023/01/07 03:34:03;;;;;;;2.07;1.20;;;12.40;89.40;;;12.90;52.32;99042.09;4951052;28;123133;-74
2023/01/07 03:36:36;;;;;;;1.10;1.00;;;12.40;89.00;;;12.85;52.35;99033.91;4964424;28;124138;-73
2023/01/07 03:39:05;;;;;;;1.13;1.00;;;12.40;88.90;;;12.81;52.07;99040.09;4969147;28;114829;-73
2023/01/07 03:44:17;;;;;;;1.30;1.20;;;12.40;88.30;;;12.76;52.06;99031.09;4967914;28;126463;-76
2023/01/07 03:46:43;;;;;;;1.83;1.20;;;12.30;88.20;;;12.76;52.01;99040.25;4973978;28;124031;-74
2023/01/07 03:49:10;;;;;;;1.20;1.10;;;12.30;88.20;;;12.74;51.47;99030.63;4974470;28;114586;-74
2023/01/07 03:51:36;;;;;;;1.20;1.00;;;12.80;88.10;;;12.73;51.47;99026.19;4971715;28;113946;-73
2023/01/07 03:54:04;;;;;;;1.27;1.10;;;12.30;87.90;;;12.73;51.60;99018.69;4969953;28;124171;-75
2023/01/07 03:56:30;;;;;;;1.13;1.03;;;12.30;87.80;;;12.76;51.46;99025.53;4973242;28;124460;-75
2023/01/07 03:58:57;;;;;;;1.10;1.00;;;12.50;87.90;;;12.76;51.30;99015.28;4970982;28;114945;-75
2023/01/07 04:01:23;;;;;;;1.13;1.03;;;12.30;87.70;;;12.78;51.67;99015.78;4972675;28;113036;-75
2023/01/07 04:03:50;;;;;;;1.47;1.20;;;12.30;87.60;;;12.79;51.39;99020.19;4973546;28;124279;-75
2023/01/07 04:06:16;;;;;;;1.10;1.00;;;12.30;87.60;;;12.81;51.47;99006.84;4973478;28;122901;-76
2023/01/07 04:08:44;;;;;;;1.43;1.20;;;12.70;88.00;;;12.82;51.32;99008.47;4972835;28;115438;-74
2023/01/07 04:11:10;;;;;;;1.50;1.00;;;12.30;87.60;;;12.83;51.36;99010.06;4978601;28;114929;-75
2023/01/07 04:13:37;;;;;;;3.57;1.10;;;12.30;87.60;;;12.85;51.25;99009.75;4972243;28;124038;-75
2023/01/07 04:16:04;;;;;;;1.60;1.30;;;12.30;87.60;;;12.85;51.28;98997.88;4969822;28;123647;-75
2023/01/07 04:18:33;;;;;;;1.17;1.07;;;12.30;87.50;;;12.82;51.33;99000.13;4970959;28;113491;-74
2023/01/07 04:20:59;;;;;;;1.40;1.20;;;10.80;86.00;;;12.81;51.60;98994.91;4960084;28;114435;-74
2023/01/07 04:23:25;;;;;;;1.50;1.17;;;12.30;87.50;;;12.80;51.20;98991.31;4967753;28;124071;-74
2023/01/07 04:25:52;;;;;;;1.33;1.20;;;12.50;87.50;;;12.78;51.38;98990.81;4970286;28;123500;-74
2023/01/07 04:28:18;;;;;;;1.73;1.30;;;12.30;87.40;;;12.78;51.15;98998.31;4966453;28;113477;-74
2023/01/07 04:30:45;;;;;;;2.53;1.40;;;12.30;87.50;;;12.78;51.50;98990.00;4970261;28;114043;-74
2023/01/07 04:33:12;;;;;;;1.30;1.07;;;12.30;87.90;;;12.79;51.42;98981.38;5004137;28;122787;-74
2023/01/07 04:35:39;;;;;;;1.30;1.20;;;12.40;87.60;;;12.81;51.51;98979.09;4969573;28;124101;-75
2023/01/07 04:38:06;;;;;;;1.40;1.10;;;12.70;87.90;;;12.81;51.38;98976.34;4973017;28;114117;-74
2023/01/07 04:40:33;;;;;;;1.10;1.00;;;12.30;87.40;;;12.81;51.29;98978.25;4971513;28;113907;-74
2023/01/07 04:42:59;;;;;;;1.83;1.37;;;12.30;87.50;;;12.81;51.33;98973.56;4969489;28;124710;-72
2023/01/07 04:45:26;;;;;;;1.40;1.20;;;12.30;87.40;;;12.81;51.28;98972.72;4972614;28;125540;-74
2023/01/07 04:47:55;;;;;;;1.67;1.10;;;12.30;87.30;;;12.77;51.21;98971.75;4969107;28;114257;-75
2023/01/07 04:50:23;;;;;;;1.20;1.10;;;12.50;87.40;;;12.73;51.38;98968.78;4952147;28;112951;-74
2023/01/07 04:52:50;;;;;;;1.70;1.40;;;12.30;87.90;;;12.70;51.54;98965.84;4967795;28;124777;-74
2023/01/07 04:55:17;;;;;;;1.50;1.20;;;12.30;87.30;;;12.70;51.20;98968.63;4969901;28;125905;-74
2023/01/07 04:57:43;;;;;;;1.40;1.30;;;12.30;87.20;;;12.71;51.44;98961.94;4971497;28;115071;-74
2023/01/07 05:00:11;;;;;;;2.20;1.30;;;12.30;87.30;;;12.70;51.51;98963.88;4956927;28;114158;-74
2023/01/07 05:02:37;;;;;;;1.00;0.90;;;12.20;87.20;;;12.69;51.21;98959.50;4972881;28;124285;-74
2023/01/07 05:05:05;;;;;;;1.27;1.17;;;12.20;87.10;;;12.69;51.17;98956.72;4968470;28;123650;-74
2023/01/07 05:07:31;;;;;;;1.23;1.13;;;12.20;87.10;;;12.67;51.22;98956.22;4976981;28;114102;-74
2023/01/07 05:09:57;;;;;;;1.20;1.10;;;12.20;87.10;;;12.66;51.28;98949.06;4972656;28;113921;-76
2023/01/07 05:12:24;;;;;;;1.17;1.07;;;12.20;87.20;;;12.68;51.42;98955.09;4969518;28;124119;-75
2023/01/07 05:14:51;;;;;;;1.30;1.20;;;12.20;87.20;;;12.69;51.38;98950.38;4969599;28;123651;-75
2023/01/07 05:17:17;;;;;;;1.77;1.20;;;12.20;87.20;;;12.70;51.42;98949.22;4969871;28;112949;-74
2023/01/07 05:19:44;;;;;;;1.20;1.10;;;12.20;87.30;;;12.71;51.64;98946.13;4970962;28;114086;-74
2023/01/07 05:22:10;;;;;;;3.30;1.40;;;12.20;87.40;;;12.72;51.52;98944.16;4970268;28;124088;-74
2023/01/07 05:24:37;;;;;;;1.53;1.23;;;12.20;87.30;;;12.73;51.37;98943.81;4969364;28;124105;-73
2023/01/07 05:27:03;;;;;;;2.63;1.10;;;12.30;87.50;;;12.74;51.41;98945.47;4968597;28;114314;-73
2023/01/07 05:29:30;;;;;;;1.27;1.07;;;12.20;87.20;;;12.73;51.28;98940.25;4969453;28;114729;-74
2023/01/07 05:31:56;;;;;;;1.57;1.47;;;12.60;87.70;;;12.73;51.43;98940.25;4967873;28;124012;-74
2023/01/07 05:34:23;;;;;;;1.17;1.07;;;12.20;87.30;;;12.72;51.17;98925.56;4968783;28;124366;-73
2023/01/07 05:36:49;;;;;;;1.60;1.40;;;12.20;87.30;;;12.70;51.45;98921.50;4954077;28;113594;-73
2023/01/07 05:39:16;;;;;;;1.37;1.27;;;12.20;87.30;;;12.69;51.34;98928.19;4969604;28;114403;-73
2023/01/07 05:41:42;;;;;;;1.97;1.47;;;12.20;87.30;;;12.70;51.42;98938.13;4968636;28;124135;-73
2023/01/07 05:44:08;;;;;;;1.50;1.30;;;12.20;87.40;;;12.72;51.39;98927.53;4968612;28;122998;-73
2023/01/07 05:46:35;;;;;;;1.33;1.20;;;12.20;87.40;;;12.72;51.55;98928.34;4968282;28;115303;-76
2023/01/07 05:49:02;;;;;;;1.30;1.20;;;12.20;87.40;;;12.72;51.37;98927.53;4965154;28;114727;-74
2023/01/07 05:51:28;;;;;;;1.83;1.33;;;12.40;87.50;;;12.70;51.30;98922.31;4969015;28;123876;-73
2023/01/07 05:53:54;;;;;;;1.67;1.47;;;12.20;87.20;;;12.67;51.28;98916.59;4982721;28;123462;-73
2023/01/07 05:56:21;;;;;;;1.60;1.40;;;12.10;87.20;;;12.62;51.61;98919.53;4969649;28;113437;-74
2023/01/07 05:58:47;;;;;;;1.50;1.30;;;12.60;87.70;;;12.60;51.60;98908.78;4967966;28;114043;-73
2023/01/07 06:01:14;;;;;;;2.40;1.40;;;12.10;87.30;;;12.58;51.53;98908.28;4967509;28;124017;-73
2023/01/07 06:03:40;;;;;;;1.60;1.50;;;12.20;87.60;;;12.56;51.82;98911.34;4968295;28;123965;-73
2023/01/07 06:06:07;;;;;;;1.70;1.20;;;12.10;87.40;;;12.56;51.87;98907.78;4968564;28;114379;-73
2023/01/07 06:08:38;;;;;;;1.67;1.40;;;12.10;87.50;;;12.55;51.61;98895.06;4968181;28;114394;-73
2023/01/07 06:11:06;;;;;;;1.83;1.30;;;12.10;87.50;;;12.53;51.70;98909.22;4973677;28;124016;-73
2023/01/07 06:13:33;;;;;;;1.50;1.33;;;12.10;87.50;;;12.52;51.89;98896.53;4967110;28;123870;-73
2023/01/07 06:16:07;;;;;;;1.60;1.20;;;12.10;87.50;;;12.55;51.97;98903.38;4953197;28;113475;-73
2023/01/07 06:18:34;;;;;;;1.70;1.43;;;12.10;87.60;;;12.52;51.50;98904.00;4953901;28;113633;-73
2023/01/07 06:21:01;;;;;;;1.43;1.13;;;12.00;87.50;;;12.52;51.88;98895.69;4966033;28;124151;-74
2023/01/07 06:23:28;;;;;;;1.47;1.20;;;12.00;87.50;;;12.51;51.98;98894.06;4969408;28;122920;-73
2023/01/07 06:25:54;;;;;;;2.77;1.60;;;12.00;87.50;;;12.51;51.79;98894.06;4966553;28;114276;-73
2023/01/07 06:28:21;;;;;;;1.60;1.50;;;12.00;87.50;;;12.51;52.06;98891.28;4962398;28;113687;-73
2023/01/07 06:30:48;;;;;;;1.43;1.33;;;12.10;87.70;;;12.50;52.09;98898.00;4967884;28;124387;-77
2023/01/07 06:33:15;;;;;;;1.47;1.17;;;12.10;87.70;;;12.50;51.90;98900.75;4965329;28;123009;-74
2023/01/07 06:35:44;;;;;;;2.47;1.40;;;12.20;87.90;;;12.48;51.90;98897.50;4967320;28;115743;-75
2023/01/07 06:38:11;;;;;;;1.93;1.63;;;12.00;87.70;;;12.47;52.15;98893.09;4965041;28;115038;-75
2023/01/07 06:40:38;;;;;;;1.60;1.50;;;12.00;87.70;;;12.47;52.04;98901.41;4966704;28;123306;-73
2023/01/07 06:43:05;;;;;;;1.33;1.23;;;12.00;87.70;;;12.41;52.08;98891.59;4963287;28;123829;-74
2023/01/07 06:45:31;;;;;;;1.30;1.20;;;12.10;87.70;;;12.35;52.17;98877.06;4994533;28;114066;-73
2023/01/07 06:47:57;;;;;;;1.40;1.20;;;11.90;87.60;;;12.31;52.45;98876.91;4966651;28;113917;-73
2023/01/07 06:50:24;;;;;;;1.43;1.33;;;11.90;87.80;;;12.31;52.28;98881.66;4968230;28;124116;-73
2023/01/07 06:52:51;;;;;;;1.30;1.20;;;11.90;87.90;;;12.32;52.17;98878.53;4970507;28;124442;-73
2023/01/07 06:55:18;;;;;;;1.80;1.20;;;12.00;87.90;;;12.32;52.37;98880.50;4968612;28;114799;-73
2023/01/07 06:57:44;;;;;;;1.37;1.27;;;11.80;87.80;;;12.32;52.52;98883.25;4970258;28;114035;-74
2023/01/07 07:00:11;;;;;;;3.13;1.53;;;11.80;87.90;;;12.28;52.28;98880.34;4951359;28;124105;-73
2023/01/07 07:02:38;;;;;;;1.67;1.50;;;11.80;87.90;;;12.28;52.04;98876.75;4969028;28;123511;-73
2023/01/07 07:05:10;;;;;;;4.33;2.90;;;11.80;88.00;;;12.27;52.14;98875.09;4966273;28;114089;-73
2023/01/07 07:07:37;;;;;;;2.33;1.70;;;11.80;87.90;;;12.22;51.66;98878.81;4966471;28;114044;-73
2023/01/07 07:10:06;;;;;;;2.60;1.70;;;11.70;87.70;;;12.17;51.96;98873.47;4968866;28;124013;-73
2023/01/07 07:12:34;;;;;;;1.20;1.10;;;11.70;87.70;;;12.15;52.44;98868.22;4967171;28;123852;-72
2023/01/07 07:15:01;;;;;;;2.27;1.70;;;11.70;87.80;;;12.18;52.13;98869.53;4986380;28;113196;-75
2023/01/07 07:17:27;;;;;;;1.57;1.47;;;11.70;87.80;;;12.18;52.26;98875.09;4959586;28;113217;-74
2023/01/07 07:19:54;;;;;;;1.47;1.37;;;11.70;87.70;;;12.16;51.96;98871.81;4960381;28;124129;-75
2023/01/07 07:22:20;;;;;;;1.50;1.27;;;11.70;87.70;;;12.14;51.96;98865.78;4979477;28;122690;-77
2023/01/07 07:24:46;;;;;;;1.67;1.57;;;11.70;87.50;;;12.11;52.15;98866.41;4955726;28;115154;-74
2023/01/07 07:27:13;;;;;;;1.53;1.20;;;11.60;87.50;;;12.09;52.09;98866.75;4967869;28;115130;-75
2023/01/07 07:29:39;;;;;;;1.63;1.43;;;11.60;87.50;;;12.08;52.09;98862.34;4958963;28;124885;-74
2023/01/07 07:32:07;;;;;;;2.33;1.20;;;11.60;87.50;;;12.06;52.07;98870.16;4956650;28;123885;-75
2023/01/07 07:34:34;;;;;;;1.80;1.33;;;11.60;87.50;;;12.04;52.17;98866.91;4964370;28;114375;-75
2023/01/07 07:37:00;;;;;;;1.80;1.20;;;11.60;87.40;;;12.06;51.85;98855.47;4961184;28;113870;-75
2023/01/07 07:39:28;;;;;;;1.43;1.27;;;11.60;87.50;;;12.07;52.05;98857.94;4970482;28;124070;-74
2023/01/07 07:41:55;;;;;;;1.50;1.30;;;11.60;87.30;;;12.07;51.52;98854.38;4958946;28;123124;-74
2023/01/07 07:44:22;;;;;;;1.63;1.33;;;11.60;87.30;;;12.07;52.02;98848.81;4959612;28;114379;-75
2023/01/07 07:46:49;;;;;;;1.37;1.27;;;11.60;87.10;;;12.06;51.95;98841.63;4962713;28;114198;-74
2023/01/07 07:49:15;;;;;;;1.17;1.07;;;11.60;87.00;;;12.04;51.74;98839.22;4995654;28;124608;-74
2023/01/07 07:51:43;;;;;;;1.43;1.10;;;11.60;87.00;;;12.04;51.50;98839.22;4963871;28;123689;-75
2023/01/07 07:54:09;;;;;;;1.47;1.37;;;11.60;87.00;;;12.03;51.58;98845.06;4967378;28;114322;-75
2023/01/07 07:56:36;;;;;;;1.80;1.27;;;11.60;87.00;;;12.01;51.70;98839.00;4992024;28;113891;-74
2023/01/07 07:59:02;;;;;;;1.53;1.30;;;11.60;86.90;;;12.02;51.81;98837.88;4958380;28;124031;-74
2023/01/07 08:01:29;;;;;;;1.57;1.17;;;11.60;87.00;;;12.04;51.78;98835.63;4960592;28;124558;-74
2023/01/07 08:03:56;;;;;;;1.80;1.70;;;11.90;87.30;;;12.05;51.70;98845.56;4966923;28;114158;-74
2023/01/07 08:06:41;;;;;;;1.30;1.10;;;11.60;87.00;;;12.03;51.65;98836.75;4972821;28;114060;-74
2023/01/07 08:09:10;;;;;;;1.37;1.17;;;11.60;86.90;;;12.03;51.92;98828.44;4973147;28;123287;-72
2023/01/07 08:11:36;;;;;;;1.40;1.20;;;11.70;87.10;;;12.04;51.64;98832.84;4954784;28;123985;-72
2023/01/07 08:14:03;;;;;;;1.40;1.30;;;11.60;87.00;;;12.07;51.66;98826.66;4958956;28;115540;-75
2023/01/07 08:16:29;;;;;;;2.13;1.60;;;11.60;87.00;;;12.09;51.77;98827.97;4974776;28;114856;-75
2023/01/07 08:18:58;;;;;;;1.60;1.10;;;11.60;87.00;;;12.12;51.47;98823.75;4969502;28;124189;-76
2023/01/07 08:21:24;;;;;;;3.40;2.87;;;11.70;87.00;;;12.15;51.47;98825.88;4971788;28;122715;-75
2023/01/07 08:23:51;;;;;;;5.20;3.93;;;11.70;87.00;;;12.16;51.59;98824.72;4962957;28;114315;-76
2023/01/07 08:26:17;;;;;;;2.77;2.20;;;11.70;86.90;;;12.18;51.70;98819.69;4968545;28;113846;-79
2023/01/07 08:28:44;;;;;;;2.93;1.67;;;11.70;86.90;;;12.20;51.63;98819.34;4960223;28;124079;-75
2023/01/07 08:31:11;;;;;;;1.40;1.30;;;11.70;86.90;;;12.20;51.56;98820.19;4971182;28;123854;-74
2023/01/07 08:33:38;;;;;;;1.37;1.27;;;11.70;86.90;;;12.21;51.49;98821.81;4969593;28;114864;-74
2023/01/07 08:36:07;;;;;;;1.33;1.20;;;11.70;86.80;;;12.21;51.19;98816.25;4972030;28;113975;-74
2023/01/07 08:38:34;;;;;;;1.53;1.23;;;11.70;86.70;;;12.21;51.56;98812.69;4983335;28;122488;-73
2023/01/07 08:41:01;;;;;;;1.87;1.40;;;11.70;86.70;;;12.20;51.55;98819.34;4964292;28;123876;-73
2023/01/07 08:43:27;;;;;;;2.47;1.27;;;11.70;86.60;;;12.20;51.24;98808.25;4968023;28;113970;-74
2023/01/07 08:45:54;;;;;;;2.60;1.40;;;11.70;86.60;;;12.19;51.73;98814.97;4968122;28;114097;-77
2023/01/07 08:48:23;;;;;;;1.43;1.33;;;12.00;87.00;;;12.21;51.35;98812.69;4968422;28;124902;-77
2023/01/07 08:50:52;;;;;;;2.57;1.30;;;11.70;86.80;;;12.23;51.48;98813.19;4968376;28;123658;-77
2023/01/07 08:53:21;;;;;;;1.40;1.20;;;12.70;87.80;;;12.25;51.58;98806.19;4967143;28;114819;-77
2023/01/07 08:55:48;;;;;;;1.33;1.10;;;12.00;87.20;;;12.25;51.41;98800.66;4965092;28;113865;-77
2023/01/07 08:58:15;;;;;;;2.43;1.30;;;11.80;86.90;;;12.25;51.70;98797.88;4965947;28;123623;-77
2023/01/07 09:00:41;;;;;;;1.37;1.20;;;11.90;87.00;;;12.27;51.55;98787.25;4970699;28;122381;-77
2023/01/07 09:03:08;;;;;;;2.03;1.33;;;11.80;86.90;;;12.28;51.38;98794.44;4969367;28;114548;-77
2023/01/07 09:05:34;;;;;;;1.23;1.10;;;11.80;86.90;;;12.32;51.45;98794.63;4968651;28;115037;-77
2023/01/07 09:08:04;;;;;;;1.87;1.30;;;12.00;87.00;;;12.35;51.37;98793.97;4970566;28;124046;-92
2023/01/07 09:10:33;;;;;;;1.50;1.40;;;11.80;86.80;;;12.37;51.32;98794.47;4970708;28;124802;-88
2023/01/07 09:12:59;;;;;;;1.50;1.30;;;11.90;86.90;;;12.40;51.41;98802.13;4966576;28;113362;-82
2023/01/07 09:15:26;;;;;;;1.77;1.37;;;11.90;86.90;;;12.42;51.30;98799.84;4965403;28;114151;-80
2023/01/07 09:17:53;;;;;;;2.10;1.43;;;11.90;86.90;;;12.46;51.32;98794.47;4968831;28;124845;-91
2023/01/07 09:20:20;;;;;;;2.37;1.80;;;11.90;86.80;;;12.48;51.35;98792.19;4965907;28;122837;-76
2023/01/07 09:22:46;;;;;;;1.37;1.27;;;13.30;88.00;;;12.50;51.22;98796.25;4985438;28;113188;-77
2023/01/07 09:25:13;;;;;;;1.40;1.30;;;12.00;86.80;;;12.51;51.21;98797.88;4963442;28;113953;-77
2023/01/07 09:27:41;;;;;;;2.23;1.83;;;12.00;86.80;;;12.52;51.17;98798.69;4968809;28;125116;-83
2023/01/07 09:30:08;;;;;;;1.80;1.60;;;12.00;86.70;;;12.52;51.05;98795.91;4964264;28;122919;-77
2023/01/07 09:32:35;;;;;;;2.37;1.80;;;12.00;86.60;;;12.55;51.20;98792.53;4960808;28;115443;-82
2023/01/07 09:35:02;;;;;;;2.13;1.50;;;12.00;86.60;;;12.55;51.25;98800.84;4966683;28;112266;-76
2023/01/07 09:37:28;;;;;;;1.40;1.30;;;12.00;87.20;;;12.55;50.89;98800.84;4966844;28;123742;-77
2023/01/07 09:39:55;;;;;;;1.87;1.40;;;12.00;86.50;;;12.57;50.99;98802.16;4967876;28;123901;-79
2023/01/07 09:42:51;;;;;;;1.80;1.50;;;12.00;86.50;;;12.57;50.83;98804.06;4970089;28;113907;-77
2023/01/07 09:45:31;;;;;;;4.13;1.83;;;12.10;86.50;;;12.55;51.08;98803.59;4968845;28;114318;-77
2023/01/07 09:48:01;;;;;;;3.43;2.13;;;12.00;86.50;;;12.53;51.02;98805.88;4971677;28;124158;-78
2023/01/07 09:50:42;;;;;;;2.30;2.00;;;12.00;86.50;;;12.53;51.29;98800.34;4967581;28;123802;-78
2023/01/07 09:53:31;;;;;;;1.80;1.53;;;12.00;86.60;;;12.54;51.34;98790.88;4963128;28;115458;-76
2023/01/07 09:55:59;;;;;;;2.50;2.30;;;12.00;87.20;;;12.55;51.27;98798.06;4963631;28;114621;-78
2023/01/07 09:58:26;;;;;;;2.90;2.20;;;12.10;86.70;;;12.56;51.36;98791.38;4965063;28;123853;-76
2023/01/07 10:01:09;;;;;;;3.30;2.10;;;12.80;87.30;;;12.59;51.25;98787.94;4963690;28;124059;-77
2023/01/07 10:03:52;;;;;;;3.07;2.50;;;12.10;86.70;;;12.62;50.95;98780.94;4965018;28;114320;-74
2023/01/07 10:07:08;;;;;;;2.50;2.00;;;12.10;86.60;;;12.59;51.25;98782.41;4963886;28;114591;-76
2023/01/07 10:09:52;;;;;;;3.30;2.20;;;12.10;86.60;;;12.59;51.13;98777.66;4968068;28;123090;-78
2023/01/07 10:13:16;;;;;;;4.17;2.53;;;12.10;86.70;;;12.61;51.33;98769.03;4963953;28;124156;-77
2023/01/07 10:16:20;;;;;;;2.80;2.53;;;12.20;86.70;;;12.60;50.66;98762.69;4965260;28;114015;-77
2023/01/07 10:18:58;;;;;;;3.03;2.63;;;12.10;86.10;;;12.59;50.70;98749.94;4980959;28;114012;-76
2023/01/07 10:21:51;;;;;;;2.43;2.17;;;12.10;86.20;;;12.63;51.09;98750.13;4966821;28;123195;-77
2023/01/07 10:24:28;;;;;;;2.50;2.27;;;12.10;86.20;;;12.69;50.51;98740.50;4963908;28;123906;-88
2023/01/07 10:27:00;;;;;;;2.80;2.47;;;12.20;86.10;;;12.73;50.33;98738.69;4996400;28;114180;-79
2023/01/07 10:29:42;;;;;;;2.60;2.40;;;12.20;86.00;;;12.76;50.06;98737.22;4974976;28;114013;-77
2023/01/07 10:32:18;;;;;;;3.23;2.10;;;12.20;85.70;;;12.81;50.19;98734.28;4997450;28;124112;-78
2023/01/07 10:34:54;;;;;;;3.10;2.40;;;13.20;86.50;;;12.82;49.69;98731.19;4965329;28;123742;-77
2023/01/07 10:37:29;;;;;;;4.90;2.87;;;12.30;85.10;;;12.86;49.69;98736.06;4979753;28;114161;-78